createdAt,value
2023-02-11T00:00:25.310Z,934.15
2023-02-11T00:01:25.332Z,934.13
2023-02-11T00:02:25.439Z,934.17
2023-02-11T00:03:25.430Z,934.13
2023-02-11T00:04:25.372Z,934.13
2023-02-11T00:05:25.388Z,934.12
2023-02-11T00:06:25.405Z,934.10
2023-02-11T00:07:25.418Z,934.11
2023-02-11T00:08:25.434Z,934.06
2023-02-11T00:09:25.448Z,934.07
2023-02-11T00:10:25.472Z,934.07
2023-02-11T00:11:25.516Z,934.01
2023-02-11T00:12:25.499Z,933.99
2023-02-11T00:13:25.523Z,933.99
2023-02-11T00:14:25.540Z,933.96
2023-02-11T00:15:25.558Z,933.91
2023-02-11T00:16:25.618Z,933.89
2023-02-11T00:17:25.583Z,933.84
2023-02-11T00:18:25.604Z,933.88
2023-02-11T00:19:25.629Z,933.90
2023-02-11T00:20:25.642Z,933.89
2023-02-11T00:21:25.664Z,933.84
2023-02-11T00:22:25.675Z,933.81
2023-02-11T00:23:25.692Z,933.81
2023-02-11T00:24:25.709Z,933.78
2023-02-11T00:25:25.717Z,933.81
2023-02-11T00:26:25.736Z,933.82
2023-02-11T00:27:25.769Z,933.86
2023-02-11T00:28:25.805Z,933.87
2023-02-11T00:29:25.791Z,933.95
2023-02-11T00:30:25.869Z,934.00
2023-02-11T00:31:26.022Z,933.99
2023-02-11T00:32:25.834Z,933.99
2023-02-11T00:33:25.857Z,934.01
2023-02-11T00:34:25.867Z,934.04
2023-02-11T00:35:25.895Z,934.06
2023-02-11T00:36:25.919Z,934.07
2023-02-11T00:37:25.930Z,934.09
2023-02-11T00:38:25.938Z,934.11
2023-02-11T00:39:25.958Z,934.10
2023-02-11T00:40:26.041Z,934.09
2023-02-11T00:41:26.009Z,934.07
2023-02-11T00:42:26.006Z,934.11
2023-02-11T00:43:26.043Z,934.02
2023-02-11T00:44:26.050Z,934.01
2023-02-11T00:45:26.052Z,934.03
2023-02-11T00:46:26.182Z,934.01
2023-02-11T00:47:26.084Z,934.02
2023-02-11T00:48:26.098Z,934.06
2023-02-11T00:49:26.136Z,934.03
2023-02-11T00:50:26.140Z,934.05
2023-02-11T00:51:26.159Z,934.06
2023-02-11T00:52:26.167Z,934.06
2023-02-11T00:53:26.182Z,934.01
2023-02-11T00:54:28.435Z,933.96
2023-02-11T00:55:26.220Z,933.92
2023-02-11T00:56:26.240Z,933.95
2023-02-11T00:57:26.268Z,933.90
2023-02-11T00:58:26.267Z,933.90
2023-02-11T00:59:26.302Z,933.92
2023-02-11T01:00:26.299Z,933.92
2023-02-11T01:01:26.371Z,933.95
2023-02-11T01:02:26.339Z,933.98
2023-02-11T01:03:26.358Z,934.01
2023-02-11T01:04:26.366Z,934.06
2023-02-11T01:05:26.439Z,934.10
2023-02-11T01:06:26.408Z,934.13
2023-02-11T01:07:26.429Z,934.14
2023-02-11T01:08:26.435Z,934.20
2023-02-11T01:09:26.460Z,934.23
2023-02-11T01:10:26.469Z,934.26
2023-02-11T01:11:26.485Z,934.29
2023-02-11T01:12:26.530Z,934.29
2023-02-11T01:13:26.530Z,934.32
2023-02-11T01:14:26.550Z,934.32
2023-02-11T01:15:26.572Z,934.33
2023-02-11T01:16:26.602Z,934.28
2023-02-11T01:17:26.593Z,934.27
2023-02-11T01:18:26.613Z,934.21
2023-02-11T01:19:26.633Z,934.13
2023-02-11T01:20:26.650Z,934.16
2023-02-11T01:21:26.670Z,934.09
2023-02-11T01:22:26.679Z,934.07
2023-02-11T01:23:26.695Z,934.05
2023-02-11T01:24:26.713Z,934.07
2023-02-11T01:25:26.724Z,934.07
2023-02-11T01:26:26.738Z,934.09
2023-02-11T01:27:26.763Z,934.06
2023-02-11T01:28:26.857Z,934.05
2023-02-11T01:29:26.796Z,934.03
2023-02-11T01:30:26.810Z,934.07
2023-02-11T01:31:30.929Z,934.05
2023-02-11T01:32:26.857Z,934.05
2023-02-11T01:33:26.862Z,934.04
2023-02-11T01:34:26.879Z,934.07
2023-02-11T01:35:26.888Z,934.09
2023-02-11T01:36:26.913Z,934.14
2023-02-11T01:37:26.926Z,934.15
2023-02-11T01:38:26.944Z,934.16
2023-02-11T01:39:26.962Z,934.18
2023-02-11T01:40:26.974Z,934.18
2023-02-11T01:41:26.998Z,934.16
2023-02-11T01:42:27.011Z,934.17
2023-02-11T01:43:27.031Z,934.14
2023-02-11T01:44:27.050Z,934.18
2023-02-11T01:45:27.054Z,934.18
2023-02-11T01:46:27.146Z,934.16
2023-02-11T01:47:27.108Z,934.18
2023-02-11T01:48:27.110Z,934.18
2023-02-11T01:49:27.230Z,934.19
2023-02-11T01:50:27.152Z,934.19
2023-02-11T01:51:27.165Z,934.22
2023-02-11T01:52:27.177Z,934.21
2023-02-11T01:53:27.194Z,934.20
2023-02-11T01:54:27.203Z,934.16
2023-02-11T01:55:27.221Z,934.14
2023-02-11T01:56:27.383Z,934.09
2023-02-11T01:57:27.275Z,934.09
2023-02-11T01:58:27.270Z,934.08
2023-02-11T01:59:27.290Z,934.05
2023-02-11T02:00:27.310Z,934.06
2023-02-11T02:01:27.473Z,934.06
2023-02-11T02:02:27.343Z,934.03
2023-02-11T02:03:27.426Z,934.00
2023-02-11T02:04:27.380Z,933.99
2023-02-11T02:05:27.421Z,933.97
2023-02-11T02:06:27.406Z,933.90
2023-02-11T02:07:27.533Z,933.93
2023-02-11T02:08:27.444Z,933.90
2023-02-11T02:09:27.466Z,933.87
2023-02-11T02:10:27.474Z,933.86
2023-02-11T02:11:27.492Z,933.89
2023-02-11T02:12:27.508Z,933.85
2023-02-11T02:13:27.525Z,933.88
2023-02-11T02:14:27.543Z,933.84
2023-02-11T02:15:27.558Z,933.82
2023-02-11T02:16:27.638Z,933.82
2023-02-11T02:17:27.594Z,933.83
2023-02-11T02:18:27.649Z,933.78
2023-02-11T02:19:27.633Z,933.82
2023-02-11T02:20:27.638Z,933.81
2023-02-11T02:21:27.651Z,933.82
2023-02-11T02:22:27.676Z,933.84
2023-02-11T02:23:27.687Z,933.80
2023-02-11T02:24:27.696Z,933.83
2023-02-11T02:25:27.711Z,933.81
2023-02-11T02:26:27.728Z,933.79
2023-02-11T02:27:27.745Z,933.81
2023-02-11T02:28:27.815Z,933.80
2023-02-11T02:29:27.777Z,933.84
2023-02-11T02:30:27.866Z,933.82
2023-02-11T02:31:27.864Z,933.81
2023-02-11T02:32:27.833Z,933.81
2023-02-11T02:33:27.845Z,933.78
2023-02-11T02:34:27.867Z,933.80
2023-02-11T02:35:27.912Z,933.76
2023-02-11T02:36:27.891Z,933.76
2023-02-11T02:37:27.911Z,933.81
2023-02-11T02:38:27.926Z,933.79
2023-02-11T02:39:27.952Z,933.78
2023-02-11T02:40:27.959Z,933.82
2023-02-11T02:41:28.074Z,933.80
2023-02-11T02:42:27.990Z,933.78
2023-02-11T02:43:28.019Z,933.78
2023-02-11T02:44:28.024Z,933.76
2023-02-11T02:45:28.042Z,933.74
2023-02-11T02:46:28.125Z,933.73
2023-02-11T02:47:28.076Z,933.73
2023-02-11T02:48:28.097Z,933.74
2023-02-11T02:49:28.109Z,933.68
2023-02-11T02:50:28.132Z,933.67
2023-02-11T02:51:28.170Z,933.69
2023-02-11T02:52:28.162Z,933.63
2023-02-11T02:53:28.182Z,933.64
2023-02-11T02:54:28.197Z,933.66
2023-02-11T02:55:28.208Z,933.63
2023-02-11T02:56:28.233Z,933.63
2023-02-11T02:57:28.241Z,933.70
2023-02-11T02:58:28.264Z,933.70
2023-02-11T02:59:28.281Z,933.65
2023-02-11T03:00:28.368Z,933.66
2023-02-11T03:01:28.322Z,933.64
2023-02-11T03:02:28.334Z,933.62
2023-02-11T03:03:28.429Z,933.64
2023-02-11T03:04:28.356Z,933.60
2023-02-11T03:05:28.382Z,933.57
2023-02-11T03:06:28.396Z,933.60
2023-02-11T03:07:28.432Z,933.58
2023-02-11T03:08:28.422Z,933.55
2023-02-11T03:09:28.437Z,933.55
2023-02-11T03:10:28.473Z,933.53
2023-02-11T03:11:28.470Z,933.52
2023-02-11T03:12:28.487Z,933.51
2023-02-11T03:13:28.525Z,933.52
2023-02-11T03:14:28.520Z,933.49
2023-02-11T03:15:28.558Z,933.50
2023-02-11T03:16:28.616Z,933.47
2023-02-11T03:17:28.579Z,933.45
2023-02-11T03:18:28.587Z,933.48
2023-02-11T03:19:28.602Z,933.50
2023-02-11T03:20:28.623Z,933.47
2023-02-11T03:21:28.641Z,933.47
2023-02-11T03:22:28.660Z,933.49
2023-02-11T03:23:28.705Z,933.47
2023-02-11T03:24:28.685Z,933.42
2023-02-11T03:25:28.710Z,933.42
2023-02-11T03:26:28.725Z,933.36
2023-02-11T03:27:28.749Z,933.35
2023-02-11T03:28:28.852Z,933.27
2023-02-11T03:29:28.768Z,933.28
2023-02-11T03:30:28.784Z,933.24
2023-02-11T03:31:28.911Z,933.24
2023-02-11T03:32:28.823Z,933.19
2023-02-11T03:33:28.830Z,933.17
2023-02-11T03:34:28.855Z,933.15
2023-02-11T03:35:28.879Z,933.21
2023-02-11T03:36:28.882Z,933.20
2023-02-11T03:37:28.897Z,933.20
2023-02-11T03:38:28.920Z,933.27
2023-02-11T03:39:28.951Z,933.23
2023-02-11T03:40:28.953Z,933.22
2023-02-11T03:41:28.962Z,933.27
2023-02-11T03:42:28.987Z,933.21
2023-02-11T03:43:29.004Z,933.21
2023-02-11T03:44:29.012Z,933.16
2023-02-11T03:45:29.067Z,933.13
2023-02-11T03:46:29.043Z,933.16
2023-02-11T03:47:29.070Z,933.16
2023-02-11T03:48:29.078Z,933.16
2023-02-11T03:49:29.100Z,933.15
2023-02-11T03:50:29.114Z,933.13
2023-02-11T03:51:29.127Z,933.05
2023-02-11T03:52:29.141Z,933.06
2023-02-11T03:53:29.163Z,933.05
2023-02-11T03:54:29.181Z,933.02
2023-02-11T03:55:29.316Z,933.02
2023-02-11T03:56:29.209Z,932.99
2023-02-11T03:57:29.230Z,932.95
2023-02-11T03:58:29.248Z,932.92
2023-02-11T03:59:29.265Z,932.91
2023-02-11T04:00:29.380Z,932.90
2023-02-11T04:01:29.337Z,932.87
2023-02-11T04:02:29.307Z,932.81
2023-02-11T04:03:29.437Z,932.75
2023-02-11T04:04:29.349Z,932.75
2023-02-11T04:05:29.359Z,932.75
2023-02-11T04:06:29.478Z,932.69
2023-02-11T04:07:29.396Z,932.67
2023-02-11T04:08:29.402Z,932.69
2023-02-11T04:09:29.428Z,932.69
2023-02-11T04:10:29.434Z,932.72
2023-02-11T04:11:29.475Z,932.73
2023-02-11T04:12:29.476Z,932.72
2023-02-11T04:13:29.490Z,932.75
2023-02-11T04:14:29.507Z,932.73
2023-02-11T04:15:29.515Z,932.73
2023-02-11T04:16:29.638Z,932.74
2023-02-11T04:17:29.558Z,932.74
2023-02-11T04:18:29.564Z,932.78
2023-02-11T04:19:29.587Z,932.83
2023-02-11T04:20:29.600Z,932.84
2023-02-11T04:21:29.619Z,932.85
2023-02-11T04:22:29.643Z,932.83
2023-02-11T04:23:29.652Z,932.84
2023-02-11T04:24:29.661Z,932.84
2023-02-11T04:25:29.689Z,932.83
2023-02-11T04:26:29.695Z,932.83
2023-02-11T04:27:29.734Z,932.83
2023-02-11T04:28:29.803Z,932.87
2023-02-11T04:29:29.748Z,932.87
2023-02-11T04:30:29.792Z,932.85
2023-02-11T04:31:29.922Z,932.86
2023-02-11T04:32:29.805Z,932.85
2023-02-11T04:33:29.812Z,932.85
2023-02-11T04:34:29.832Z,932.89
2023-02-11T04:35:29.847Z,932.87
2023-02-11T04:36:29.858Z,932.89
2023-02-11T04:37:29.876Z,932.89
2023-02-11T04:38:29.891Z,932.96
2023-02-11T04:39:29.917Z,932.93
2023-02-11T04:40:29.932Z,932.96
2023-02-11T04:41:29.948Z,932.95
2023-02-11T04:42:29.960Z,933.01
2023-02-11T04:43:30.013Z,933.02
2023-02-11T04:44:29.994Z,933.01
2023-02-11T04:45:30.011Z,932.99
2023-02-11T04:46:30.058Z,932.97
2023-02-11T04:47:30.154Z,932.97
2023-02-11T04:48:30.052Z,932.93
2023-02-11T04:49:30.074Z,932.93
2023-02-11T04:50:30.091Z,932.96
2023-02-11T04:51:30.125Z,932.90
2023-02-11T04:52:30.122Z,932.91
2023-02-11T04:53:30.142Z,932.90
2023-02-11T04:54:30.155Z,932.89
2023-02-11T04:55:30.166Z,932.88
2023-02-11T04:56:30.198Z,932.84
2023-02-11T04:57:30.195Z,932.84
2023-02-11T04:58:30.216Z,932.81
2023-02-11T04:59:30.257Z,932.82
2023-02-11T05:00:30.254Z,932.80
2023-02-11T05:01:30.342Z,932.81
2023-02-11T05:02:30.276Z,932.75
2023-02-11T05:03:30.311Z,932.71
2023-02-11T05:04:30.374Z,932.73
2023-02-11T05:05:30.333Z,932.72
2023-02-11T05:06:30.348Z,932.74
2023-02-11T05:07:30.367Z,932.75
2023-02-11T05:08:30.379Z,932.72
2023-02-11T05:09:30.399Z,932.67
2023-02-11T05:10:30.406Z,932.74
2023-02-11T05:11:30.432Z,932.70
2023-02-11T05:12:30.438Z,932.68
2023-02-11T05:13:30.453Z,932.69
2023-02-11T05:14:30.481Z,932.68
2023-02-11T05:15:30.515Z,932.68
2023-02-11T05:16:30.567Z,932.67
2023-02-11T05:17:30.518Z,932.71
2023-02-11T05:18:30.542Z,932.71
2023-02-11T05:19:30.551Z,932.71
2023-02-11T05:20:30.577Z,932.76
2023-02-11T05:21:30.591Z,932.73
2023-02-11T05:22:30.600Z,932.78
2023-02-11T05:23:30.615Z,932.75
2023-02-11T05:24:30.639Z,932.84
2023-02-11T05:25:30.647Z,932.81
2023-02-11T05:26:30.670Z,932.84
2023-02-11T05:27:30.679Z,932.82
2023-02-11T05:28:30.800Z,932.81
2023-02-11T05:29:30.718Z,932.83
2023-02-11T05:30:30.758Z,932.84
2023-02-11T05:31:30.762Z,932.88
2023-02-11T05:32:30.784Z,932.83
2023-02-11T05:33:30.782Z,932.84
2023-02-11T05:34:30.791Z,932.86
2023-02-11T05:35:30.815Z,932.83
2023-02-11T05:36:33.312Z,932.78
2023-02-11T05:37:30.889Z,932.83
2023-02-11T05:38:30.968Z,932.79
2023-02-11T05:39:30.879Z,932.71
2023-02-11T05:40:30.897Z,932.72
2023-02-11T05:41:30.902Z,932.69
2023-02-11T05:42:30.923Z,932.71
2023-02-11T05:43:30.935Z,932.66
2023-02-11T05:44:30.960Z,932.68
2023-02-11T05:45:30.974Z,932.68
2023-02-11T05:46:31.083Z,932.64
2023-02-11T05:47:31.019Z,932.64
2023-02-11T05:48:31.024Z,932.63
2023-02-11T05:49:31.043Z,932.61
2023-02-11T05:50:31.048Z,932.62
2023-02-11T05:51:31.091Z,932.59
2023-02-11T05:52:31.085Z,932.60
2023-02-11T05:53:31.104Z,932.58
2023-02-11T05:54:31.122Z,932.60
2023-02-11T05:55:31.136Z,932.57
2023-02-11T05:56:31.153Z,932.52
2023-02-11T05:57:31.164Z,932.54
2023-02-11T05:58:31.183Z,932.55
2023-02-11T05:59:31.194Z,932.51
2023-02-11T06:00:31.216Z,932.55
2023-02-11T06:01:31.224Z,932.54
2023-02-11T06:02:31.263Z,932.56
2023-02-11T06:03:31.450Z,932.58
2023-02-11T06:04:31.287Z,932.56
2023-02-11T06:05:31.301Z,932.59
2023-02-11T06:06:31.311Z,932.58
2023-02-11T06:07:31.323Z,932.57
2023-02-11T06:08:31.339Z,932.57
2023-02-11T06:09:31.354Z,932.62
2023-02-11T06:10:31.369Z,932.62
2023-02-11T06:11:31.385Z,932.63
2023-02-11T06:12:31.400Z,932.70
2023-02-11T06:13:31.530Z,932.70
2023-02-11T06:14:31.436Z,932.76
2023-02-11T06:15:31.448Z,932.78
2023-02-11T06:16:31.529Z,932.80
2023-02-11T06:17:31.481Z,932.80
2023-02-11T06:18:31.505Z,932.79
2023-02-11T06:19:31.549Z,932.75
2023-02-11T06:20:31.546Z,932.73
2023-02-11T06:21:43.018Z,932.71
2023-02-11T06:22:31.559Z,932.67
2023-02-11T06:23:31.583Z,932.68
2023-02-11T06:24:51.331Z,932.68
2023-02-11T06:25:31.616Z,932.68
2023-02-11T06:26:31.631Z,932.75
2023-02-11T06:27:31.650Z,932.74
2023-02-11T06:28:31.740Z,932.76
2023-02-11T06:29:31.671Z,932.78
2023-02-11T06:30:31.687Z,932.79
2023-02-11T06:31:31.799Z,932.84
2023-02-11T06:32:46.168Z,932.77
2023-02-11T06:33:31.743Z,932.76
2023-02-11T06:34:31.753Z,932.74
2023-02-11T06:35:31.794Z,932.73
2023-02-11T06:36:31.785Z,932.76
2023-02-11T06:37:31.810Z,932.74
2023-02-11T06:38:31.824Z,932.77
2023-02-11T06:39:31.840Z,932.76
2023-02-11T06:40:31.848Z,932.80
2023-02-11T06:41:31.881Z,932.77
2023-02-11T06:42:31.889Z,932.79
2023-02-11T06:43:31.905Z,932.74
2023-02-11T06:44:31.913Z,932.72
2023-02-11T06:45:31.929Z,932.67
2023-02-11T06:46:32.033Z,932.69
2023-02-11T06:47:31.963Z,932.73
2023-02-11T06:48:31.979Z,932.71
2023-02-11T06:49:32.001Z,932.69
2023-02-11T06:50:32.020Z,932.68
2023-02-11T06:51:32.052Z,932.73
2023-02-11T06:52:32.044Z,932.73
2023-02-11T06:53:32.063Z,932.76
2023-02-11T06:54:32.179Z,932.78
2023-02-11T06:55:32.095Z,932.78
2023-02-11T06:56:32.104Z,932.78
2023-02-11T06:57:32.128Z,932.80
2023-02-11T06:58:32.135Z,932.78
2023-02-11T06:59:32.151Z,932.84
2023-02-11T07:00:32.178Z,932.90
2023-02-11T07:01:32.212Z,932.94
2023-02-11T07:02:32.225Z,932.95
2023-02-11T07:03:32.221Z,932.91
2023-02-11T07:04:32.232Z,932.94
2023-02-11T07:05:32.252Z,932.99
2023-02-11T07:06:32.261Z,933.01
2023-02-11T07:07:34.133Z,933.00
2023-02-11T07:08:32.306Z,933.00
2023-02-11T07:09:32.332Z,933.00
2023-02-11T07:10:32.335Z,933.03
2023-02-11T07:11:32.351Z,933.07
2023-02-11T07:12:32.370Z,933.06
2023-02-11T07:13:32.374Z,933.11
2023-02-11T07:14:32.394Z,933.09
2023-02-11T07:15:32.406Z,933.09
2023-02-11T07:16:32.439Z,933.18
2023-02-11T07:17:32.444Z,933.14
2023-02-11T07:18:32.459Z,933.13
2023-02-11T07:19:32.476Z,933.15
2023-02-11T07:20:32.486Z,933.09
2023-02-11T07:21:32.524Z,933.10
2023-02-11T07:22:32.519Z,933.11
2023-02-11T07:23:32.560Z,933.12
2023-02-11T07:24:32.570Z,933.16
2023-02-11T07:25:32.566Z,933.13
2023-02-11T07:26:32.579Z,933.09
2023-02-11T07:27:32.598Z,933.09
2023-02-11T07:28:32.684Z,933.09
2023-02-11T07:29:32.635Z,933.09
2023-02-11T07:30:32.659Z,933.10
2023-02-11T07:31:32.824Z,933.09
2023-02-11T07:32:32.676Z,933.07
2023-02-11T07:33:32.692Z,933.06
2023-02-11T07:34:32.763Z,933.05
2023-02-11T07:35:32.728Z,932.99
2023-02-11T07:36:32.762Z,932.98
2023-02-11T07:37:32.756Z,933.01
2023-02-11T07:38:32.772Z,933.01
2023-02-11T07:39:32.817Z,933.06
2023-02-11T07:40:32.804Z,933.05
2023-02-11T07:41:32.824Z,933.04
2023-02-11T07:42:32.843Z,933.07
2023-02-11T07:43:32.857Z,933.04
2023-02-11T07:44:32.867Z,932.99
2023-02-11T07:45:32.888Z,932.98
2023-02-11T07:46:32.970Z,933.02
2023-02-11T07:47:32.919Z,933.05
2023-02-11T07:48:32.937Z,933.06
2023-02-11T07:49:32.949Z,933.08
2023-02-11T07:50:32.996Z,933.06
2023-02-11T07:51:32.981Z,933.06
2023-02-11T07:52:32.999Z,932.99
2023-02-11T07:53:33.009Z,932.99
2023-02-11T07:54:33.023Z,932.98
2023-02-11T07:55:33.058Z,933.01
2023-02-11T07:56:33.168Z,933.00
2023-02-11T07:57:33.070Z,933.00
2023-02-11T07:58:33.086Z,932.97
2023-02-11T07:59:33.101Z,933.02
2023-02-11T08:00:33.258Z,932.96
2023-02-11T08:01:33.151Z,933.02
2023-02-11T08:02:33.323Z,933.02
2023-02-11T08:03:33.172Z,933.05
2023-02-11T08:04:33.188Z,933.11
2023-02-11T08:05:33.206Z,933.09
2023-02-11T08:06:33.225Z,933.12
2023-02-11T08:07:33.336Z,933.16
2023-02-11T08:08:33.246Z,933.14
2023-02-11T08:09:34.575Z,933.16
2023-02-11T08:10:33.282Z,933.19
2023-02-11T08:11:33.322Z,933.17
2023-02-11T08:12:33.320Z,933.17
2023-02-11T08:13:33.429Z,933.20
2023-02-11T08:14:33.340Z,933.20
2023-02-11T08:15:33.363Z,933.19
2023-02-11T08:16:33.453Z,933.24
2023-02-11T08:17:33.384Z,933.18
2023-02-11T08:18:33.406Z,933.20
2023-02-11T08:19:35.261Z,933.18
2023-02-11T08:20:33.439Z,933.16
2023-02-11T08:21:33.461Z,933.17
2023-02-11T08:22:33.470Z,933.17
2023-02-11T08:23:33.490Z,933.17
2023-02-11T08:24:33.602Z,933.18
2023-02-11T08:25:33.510Z,933.20
2023-02-11T08:26:33.525Z,933.23
2023-02-11T08:27:33.567Z,933.18
2023-02-11T08:28:33.612Z,933.20
2023-02-11T08:29:33.580Z,933.21
2023-02-11T08:30:33.594Z,933.18
2023-02-11T08:31:33.788Z,933.20
2023-02-11T08:32:33.628Z,933.16
2023-02-11T08:33:33.636Z,933.21
2023-02-11T08:34:33.649Z,933.22
2023-02-11T08:35:33.673Z,933.18
2023-02-11T08:36:33.686Z,933.19
2023-02-11T08:37:33.697Z,933.24
2023-02-11T08:38:33.711Z,933.25
2023-02-11T08:39:33.739Z,933.25
2023-02-11T08:40:33.744Z,933.23
2023-02-11T08:41:33.759Z,933.25
2023-02-11T08:42:33.782Z,933.27
2023-02-11T08:43:33.809Z,933.29
2023-02-11T08:44:33.815Z,933.31
2023-02-11T08:45:33.851Z,933.29
2023-02-11T08:46:33.877Z,933.36
2023-02-11T08:47:33.873Z,933.32
2023-02-11T08:48:33.871Z,933.32
2023-02-11T08:49:33.896Z,933.33
2023-02-11T08:50:33.919Z,933.28
2023-02-11T08:51:33.921Z,933.31
2023-02-11T08:52:33.933Z,933.32
2023-02-11T08:53:33.949Z,933.32
2023-02-11T08:54:33.971Z,933.33
2023-02-11T08:55:33.991Z,933.35
2023-02-11T08:56:34.001Z,933.34
2023-02-11T08:57:34.025Z,933.32
2023-02-11T08:58:34.027Z,933.33
2023-02-11T08:59:34.175Z,933.33
2023-02-11T09:00:34.081Z,933.33
2023-02-11T09:01:34.298Z,933.36
2023-02-11T09:02:34.128Z,933.36
2023-02-11T09:03:34.115Z,933.38
2023-02-11T09:04:34.123Z,933.36
2023-02-11T09:05:34.245Z,933.37
2023-02-11T09:06:34.162Z,933.36
2023-02-11T09:07:34.179Z,933.37
2023-02-11T09:08:34.193Z,933.36
2023-02-11T09:09:34.211Z,933.37
2023-02-11T09:10:34.324Z,933.41
2023-02-11T09:11:34.234Z,933.39
2023-02-11T09:12:34.249Z,933.37
2023-02-11T09:13:34.263Z,933.41
2023-02-11T09:14:34.279Z,933.41
2023-02-11T09:15:34.332Z,933.43
2023-02-11T09:16:34.336Z,933.43
2023-02-11T09:17:34.334Z,933.44
2023-02-11T09:18:34.343Z,933.46
2023-02-11T09:19:34.360Z,933.50
2023-02-11T09:20:34.375Z,933.51
2023-02-11T09:21:34.399Z,933.56
2023-02-11T09:22:34.405Z,933.57
2023-02-11T09:23:34.437Z,933.57
2023-02-11T09:24:34.450Z,933.63
2023-02-11T09:25:34.458Z,933.63
2023-02-11T09:26:34.476Z,933.64
2023-02-11T09:27:34.493Z,933.67
2023-02-11T09:28:34.596Z,933.63
2023-02-11T09:29:34.515Z,933.64
2023-02-11T09:30:34.655Z,933.66
2023-02-11T09:31:34.787Z,933.67
2023-02-11T09:32:34.564Z,933.70
2023-02-11T09:33:34.578Z,933.72
2023-02-11T09:34:34.602Z,933.74
2023-02-11T09:35:34.634Z,933.79
2023-02-11T09:36:34.634Z,933.79
2023-02-11T09:37:37.247Z,933.77
2023-02-11T09:38:34.670Z,933.79
2023-02-11T09:39:34.688Z,933.78
2023-02-11T09:40:34.700Z,933.82
2023-02-11T09:41:34.713Z,933.87
2023-02-11T09:42:34.728Z,933.82
2023-02-11T09:43:34.738Z,933.82
2023-02-11T09:44:34.765Z,933.80
2023-02-11T09:45:34.767Z,933.81
2023-02-11T09:46:34.832Z,933.82
2023-02-11T09:47:34.820Z,933.83
2023-02-11T09:48:34.817Z,933.85
2023-02-11T09:49:34.841Z,933.84
2023-02-11T09:50:34.854Z,933.84
2023-02-11T09:51:34.874Z,933.85
2023-02-11T09:52:34.885Z,933.90
2023-02-11T09:53:34.905Z,933.91
2023-02-11T09:54:34.910Z,933.93
2023-02-11T09:55:34.926Z,933.93
2023-02-11T09:56:34.951Z,933.94
2023-02-11T09:57:34.961Z,933.97
2023-02-11T09:58:34.985Z,933.94
2023-02-11T09:59:34.990Z,933.97
2023-02-11T10:00:35.013Z,933.97
2023-02-11T10:01:35.106Z,933.98
2023-02-11T10:02:35.038Z,934.01
2023-02-11T10:03:35.087Z,934.00
2023-02-11T10:04:35.113Z,933.99
2023-02-11T10:05:35.092Z,933.98
2023-02-11T10:06:35.104Z,933.98
2023-02-11T10:07:35.118Z,934.01
2023-02-11T10:08:35.134Z,933.97
2023-02-11T10:09:35.156Z,933.98
2023-02-11T10:10:35.177Z,934.00
2023-02-11T10:11:35.189Z,933.95
2023-02-11T10:12:35.203Z,934.01
2023-02-11T10:13:35.218Z,933.95
2023-02-11T10:14:35.228Z,933.98
2023-02-11T10:15:35.282Z,933.96
2023-02-11T10:16:35.259Z,933.99
2023-02-11T10:17:35.282Z,934.01
2023-02-11T10:18:35.292Z,934.02
2023-02-11T10:19:35.325Z,934.06
2023-02-11T10:20:35.322Z,934.02
2023-02-11T10:21:35.339Z,934.01
2023-02-11T10:22:35.360Z,934.04
2023-02-11T10:23:35.370Z,934.08
2023-02-11T10:24:35.399Z,934.09
2023-02-11T10:25:35.443Z,934.11
2023-02-11T10:26:35.424Z,934.06
2023-02-11T10:27:35.432Z,934.04
2023-02-11T10:28:35.500Z,934.07
2023-02-11T10:29:35.479Z,934.08
2023-02-11T10:30:35.577Z,934.05
2023-02-11T10:31:35.750Z,934.08
2023-02-11T10:32:35.527Z,934.11
2023-02-11T10:33:35.550Z,934.10
2023-02-11T10:34:35.540Z,934.08
2023-02-11T10:35:35.577Z,934.11
2023-02-11T10:36:35.598Z,934.09
2023-02-11T10:37:35.594Z,934.09
2023-02-11T10:38:35.603Z,934.12
2023-02-11T10:39:35.640Z,934.12
2023-02-11T10:40:35.646Z,934.14
2023-02-11T10:41:35.656Z,934.18
2023-02-11T10:42:35.677Z,934.15
2023-02-11T10:43:35.683Z,934.18
2023-02-11T10:44:35.697Z,934.18
2023-02-11T10:45:35.719Z,934.15
2023-02-11T10:46:35.765Z,934.17
2023-02-11T10:47:35.744Z,934.17
2023-02-11T10:48:35.769Z,934.24
2023-02-11T10:49:35.777Z,934.19
2023-02-11T10:50:35.804Z,934.16
2023-02-11T10:51:35.825Z,934.19
2023-02-11T10:52:35.830Z,934.18
2023-02-11T10:53:35.839Z,934.23
2023-02-11T10:54:35.855Z,934.25
2023-02-11T10:55:35.878Z,934.23
2023-02-11T10:56:35.904Z,934.20
2023-02-11T10:57:35.908Z,934.20
2023-02-11T10:58:35.923Z,934.19
2023-02-11T10:59:35.939Z,934.21
2023-02-11T11:00:35.953Z,934.22
2023-02-11T11:01:36.010Z,934.20
2023-02-11T11:02:35.987Z,934.21
2023-02-11T11:03:35.996Z,934.19
2023-02-11T11:04:36.083Z,934.20
2023-02-11T11:05:36.043Z,934.20
2023-02-11T11:06:36.045Z,934.23
2023-02-11T11:07:36.172Z,934.24
2023-02-11T11:08:36.072Z,934.22
2023-02-11T11:09:36.089Z,934.21
2023-02-11T11:10:36.105Z,934.22
2023-02-11T11:11:36.133Z,934.25
2023-02-11T11:12:36.287Z,934.27
2023-02-11T11:13:36.156Z,934.23
2023-02-11T11:14:36.173Z,934.26
2023-02-11T11:15:36.210Z,934.28
2023-02-11T11:16:36.283Z,934.26
2023-02-11T11:17:36.220Z,934.29
2023-02-11T11:18:36.229Z,934.28
2023-02-11T11:19:36.246Z,934.28
2023-02-11T11:20:36.289Z,934.32
2023-02-11T11:21:36.275Z,934.28
2023-02-11T11:22:36.298Z,934.32
2023-02-11T11:23:36.334Z,934.31
2023-02-11T11:24:36.336Z,934.31
2023-02-11T11:25:36.336Z,934.33
2023-02-11T11:26:36.361Z,934.26
2023-02-11T11:27:36.401Z,934.32
2023-02-11T11:28:36.465Z,934.34
2023-02-11T11:29:36.402Z,934.32
2023-02-11T11:30:36.462Z,934.33
2023-02-11T11:31:36.590Z,934.29
2023-02-11T11:32:36.455Z,934.30
2023-02-11T11:33:36.474Z,934.27
2023-02-11T11:34:36.485Z,934.33
2023-02-11T11:35:36.494Z,934.33
2023-02-11T11:36:36.514Z,934.38
2023-02-11T11:37:36.524Z,934.37
2023-02-11T11:38:36.538Z,934.39
2023-02-11T11:39:36.593Z,934.37
2023-02-11T11:40:36.575Z,934.37
2023-02-11T11:41:36.590Z,934.39
2023-02-11T11:42:36.604Z,934.38
2023-02-11T11:43:36.619Z,934.41
2023-02-11T11:44:36.634Z,934.38
2023-02-11T11:45:36.655Z,934.42
2023-02-11T11:46:36.744Z,934.44
2023-02-11T11:47:36.688Z,934.44
2023-02-11T11:48:36.702Z,934.42
2023-02-11T11:49:36.713Z,934.46
2023-02-11T11:50:36.732Z,934.42
2023-02-11T11:51:36.744Z,934.40
2023-02-11T11:52:36.776Z,934.44
2023-02-11T11:53:36.776Z,934.39
2023-02-11T11:54:36.784Z,934.43
2023-02-11T11:55:36.820Z,934.37
2023-02-11T11:56:36.816Z,934.40
2023-02-11T11:57:36.838Z,934.39
2023-02-11T11:58:36.861Z,934.39
2023-02-11T11:59:36.863Z,934.42
2023-02-11T12:00:36.880Z,934.38
2023-02-11T12:01:36.941Z,934.39
2023-02-11T12:02:36.916Z,934.45
2023-02-11T12:03:36.936Z,934.43
2023-02-11T12:04:36.955Z,934.45
2023-02-11T12:05:36.960Z,934.43
2023-02-11T12:06:36.973Z,934.44
2023-02-11T12:07:37.000Z,934.47
2023-02-11T12:08:37.004Z,934.44
2023-02-11T12:09:37.021Z,934.48
2023-02-11T12:10:37.043Z,934.50
2023-02-11T12:11:37.174Z,934.50
2023-02-11T12:12:37.074Z,934.50
2023-02-11T12:13:37.093Z,934.51
2023-02-11T12:14:37.104Z,934.54
2023-02-11T12:15:37.113Z,934.53
2023-02-11T12:16:37.202Z,934.56
2023-02-11T12:17:37.148Z,934.50
2023-02-11T12:18:37.166Z,934.54
2023-02-11T12:19:37.175Z,934.56
2023-02-11T12:20:37.202Z,934.57
2023-02-11T12:21:37.215Z,934.57
2023-02-11T12:22:37.221Z,934.61
2023-02-11T12:23:37.338Z,934.57
2023-02-11T12:24:37.256Z,934.55
2023-02-11T12:25:37.270Z,934.58
2023-02-11T12:26:37.304Z,934.61
2023-02-11T12:27:37.321Z,934.56
2023-02-11T12:28:37.487Z,934.58